Time;durP1;ratioP1;P1;durP2;ratioP2;P2;SDS_P1;SDS_P2;PMS_P1;PMS_P2;Temp;Humidity;BMP_temperature;BMP_pressure;BME280_temperature;BME280_humidity;BME280_pressure;Samples;Min_cycle;Max_cycle;Signal;HPM_P1;HPM_P2
2023/09/06 00:19:14;;;;;;;0.30;0.30;;;17.30;99.90;;;;;;4967943;28;20068;-72
2023/09/06 00:21:42;;;;;;;0.40;0.40;;;17.30;99.90;;;;;;4968446;28;20054;-73
2023/09/06 00:24:11;;;;;;;0.30;0.30;;;17.30;99.90;;;;;;4971744;28;20052;-72
2023/09/06 00:26:38;;;;;;;0.25;0.25;;;17.20;99.90;;;;;;4978704;28;20054;-72
2023/09/06 00:29:04;;;;;;;0.45;0.45;;;17.20;99.90;;;;;;4966378;28;20054;-73
2023/09/06 00:31:31;;;;;;;0.65;0.65;;;17.20;99.90;;;;;;4982555;28;20138;-73
2023/09/06 00:33:57;;;;;;;0.30;0.30;;;17.10;99.90;;;;;;4964025;28;20483;-72
2023/09/06 00:36:22;;;;;;;0.38;0.38;;;17.10;99.90;;;;;;4949696;28;20058;-72
2023/09/06 00:38:51;;;;;;;0.30;0.30;;;17.10;99.90;;;;;;4948847;28;20129;-73
2023/09/06 00:41:17;;;;;;;0.30;0.30;;;17.00;99.90;;;;;;4950126;28;20559;-73
2023/09/06 00:43:42;;;;;;;0.40;0.40;;;17.00;99.90;;;;;;4949947;28;20085;-73
2023/09/06 00:46:08;;;;;;;0.30;0.30;;;16.90;99.90;;;;;;4967866;28;20042;-73
2023/09/06 00:48:34;;;;;;;0.30;0.30;;;16.90;99.90;;;;;;4966776;28;20053;-72
2023/09/06 00:51:03;;;;;;;0.20;0.20;;;16.80;99.90;;;;;;4946573;28;20678;-72
2023/09/06 00:53:30;;;;;;;0.47;0.47;;;16.80;99.90;;;;;;4962093;28;20537;-72
2023/09/06 00:55:58;;;;;;;0.40;0.40;;;16.70;99.90;;;;;;4964166;28;20094;-72
2023/09/06 00:58:26;;;;;;;0.20;0.20;;;16.60;99.90;;;;;;4971298;28;20065;-72
2023/09/06 01:00:52;;;;;;;0.52;0.52;;;16.50;99.90;;;;;;4949594;28;20113;-72
2023/09/06 01:03:18;;;;;;;0.30;0.30;;;16.40;99.90;;;;;;4965363;28;20624;-72
2023/09/06 01:06:02;;;;;;;0.30;0.30;;;16.30;99.90;;;;;;4953628;28;20852;-72
2023/09/06 01:08:46;;;;;;;0.50;0.50;;;16.30;99.90;;;;;;4945917;28;20062;-72
2023/09/06 01:11:14;;;;;;;0.40;0.40;;;16.20;99.90;;;;;;4971236;28;20058;-73
2023/09/06 01:13:40;;;;;;;0.30;0.30;;;16.20;99.90;;;;;;4956682;28;20070;-72
2023/09/06 01:16:06;;;;;;;0.30;0.30;;;16.20;99.90;;;;;;4948325;28;20516;-73
2023/09/06 01:18:32;;;;;;;0.30;0.30;;;16.20;99.90;;;;;;4960510;28;20070;-73
2023/09/06 01:21:06;;;;;;;0.30;0.30;;;16.20;99.90;;;;;;4972313;28;20061;-73
2023/09/06 01:23:40;;;;;;;0.40;0.40;;;16.20;99.90;;;;;;4976679;28;20123;-72
2023/09/06 01:26:06;;;;;;;0.40;0.40;;;16.20;99.90;;;;;;4970775;28;20097;-73
2023/09/06 01:28:32;;;;;;;0.40;0.40;;;16.10;99.90;;;;;;4958716;28;20141;-73
2023/09/06 01:31:01;;;;;;;0.40;0.40;;;16.10;99.90;;;;;;4961859;28;20095;-73
2023/09/06 01:33:30;;;;;;;0.30;0.30;;;16.00;99.90;;;;;;4958828;28;20100;-73
2023/09/06 01:35:57;;;;;;;0.30;0.30;;;16.00;99.90;;;;;;4962158;28;20050;-73
2023/09/06 01:38:23;;;;;;;0.40;0.40;;;15.90;99.90;;;;;;4979639;28;20109;-72
2023/09/06 01:40:48;;;;;;;0.40;0.40;;;15.90;99.90;;;;;;4982216;28;20057;-72
2023/09/06 01:43:15;;;;;;;0.32;0.32;;;15.80;99.90;;;;;;4967680;28;20039;-72
2023/09/06 01:45:51;;;;;;;0.50;0.45;;;15.80;99.90;;;;;;4955474;28;20539;-72
2023/09/06 01:48:19;;;;;;;0.40;0.40;;;15.80;99.90;;;;;;4964652;28;20043;-73
2023/09/06 01:50:46;;;;;;;0.30;0.30;;;15.80;99.90;;;;;;4962265;28;20553;-73
2023/09/06 01:53:14;;;;;;;0.50;0.50;;;15.80;99.90;;;;;;4963833;28;20046;-75
2023/09/06 01:55:44;;;;;;;0.30;0.30;;;15.80;99.90;;;;;;4978440;28;20080;-73
2023/09/06 01:58:11;;;;;;;0.43;0.43;;;15.70;99.90;;;;;;4980898;28;20050;-73
2023/09/06 02:00:37;;;;;;;0.40;0.40;;;15.70;99.90;;;;;;4983225;28;20050;-73
2023/09/06 02:03:09;;;;;;;0.30;0.30;;;15.70;99.90;;;;;;4976772;28;20129;-73
2023/09/06 02:05:35;;;;;;;0.30;0.30;;;15.70;99.90;;;;;;4953704;28;20447;-73
2023/09/06 02:08:01;;;;;;;0.30;0.30;;;15.60;99.90;;;;;;4972691;28;20689;-74
2023/09/06 02:10:27;;;;;;;0.32;0.32;;;15.70;99.90;;;;;;4976017;28;20129;-73
2023/09/06 02:12:52;;;;;;;0.40;0.40;;;15.70;99.90;;;;;;4989269;28;20050;-73
2023/09/06 02:15:18;;;;;;;0.38;0.38;;;15.60;99.90;;;;;;4991499;28;20038;-73
2023/09/06 02:17:44;;;;;;;0.30;0.30;;;15.60;99.90;;;;;;4997634;28;20434;-72
2023/09/06 02:20:19;;;;;;;0.20;0.20;;;15.60;99.90;;;;;;5001906;28;20623;-72
2023/09/06 02:22:47;;;;;;;0.20;0.20;;;15.60;99.90;;;;;;4988072;28;20580;-73
2023/09/06 02:25:13;;;;;;;0.40;0.40;;;15.60;99.90;;;;;;5003421;28;20538;-72
2023/09/06 02:27:40;;;;;;;0.30;0.30;;;15.50;99.90;;;;;;4992139;28;20046;-73
2023/09/06 02:30:06;;;;;;;0.32;0.32;;;15.50;99.90;;;;;;5003273;28;20454;-73
2023/09/06 02:32:35;;;;;;;0.40;0.40;;;15.50;99.90;;;;;;4966431;28;20085;-73
2023/09/06 02:35:01;;;;;;;0.30;0.30;;;15.50;99.90;;;;;;4958740;28;20117;-72
2023/09/06 02:37:27;;;;;;;0.40;0.40;;;15.50;99.90;;;;;;4964098;28;20061;-72
2023/09/06 02:39:53;;;;;;;0.30;0.30;;;15.50;99.90;;;;;;4970194;28;20046;-72
2023/09/06 02:42:19;;;;;;;0.32;0.32;;;15.50;99.90;;;;;;4972045;28;20414;-72
2023/09/06 02:44:45;;;;;;;0.30;0.30;;;15.50;99.90;;;;;;4986153;28;20094;-72
2023/09/06 02:47:14;;;;;;;0.40;0.40;;;15.50;99.90;;;;;;4969435;28;20184;-72
2023/09/06 02:49:41;;;;;;;0.20;0.20;;;15.40;99.90;;;;;;4975524;28;20058;-72
2023/09/06 02:52:12;;;;;;;0.35;0.35;;;15.40;99.90;;;;;;4974670;28;20505;-73
2023/09/06 02:54:42;;;;;;;0.40;0.40;;;15.40;99.90;;;;;;4969162;28;20136;-72
2023/09/06 02:57:10;;;;;;;0.98;0.65;;;15.40;99.90;;;;;;4974114;28;20054;-73
2023/09/06 02:59:35;;;;;;;0.20;0.20;;;15.40;99.90;;;;;;4997113;28;20111;-73
2023/09/06 03:02:05;;;;;;;0.40;0.40;;;15.40;99.90;;;;;;4970399;28;20103;-73
2023/09/06 03:04:37;;;;;;;0.30;0.30;;;15.30;99.90;;;;;;4963091;28;21067;-72
2023/09/06 03:07:07;;;;;;;0.30;0.30;;;15.40;99.90;;;;;;4968787;28;20121;-73
2023/09/06 03:09:35;;;;;;;0.30;0.30;;;15.30;99.90;;;;;;4975372;28;20058;-72
2023/09/06 03:12:11;;;;;;;0.30;0.30;;;15.20;99.90;;;;;;4966011;28;20141;-73
2023/09/06 03:14:44;;;;;;;0.30;0.30;;;15.20;99.90;;;;;;4968211;28;20129;-72
2023/09/06 03:17:11;;;;;;;0.30;0.30;;;15.20;99.90;;;;;;4986170;28;20117;-72
2023/09/06 03:19:44;;;;;;;0.30;0.30;;;15.20;99.90;;;;;;4975060;28;22671;-73
2023/09/06 03:22:12;;;;;;;0.40;0.40;;;15.20;99.90;;;;;;4986030;28;20645;-72
2023/09/06 03:24:40;;;;;;;0.40;0.40;;;15.10;99.90;;;;;;4984472;28;20063;-73
2023/09/06 03:27:09;;;;;;;;;;;15.10;99.90;;;;;;4962899;28;20313;-73
2023/09/06 03:29:38;;;;;;;0.55;0.55;;;15.10;99.90;;;;;;4981466;28;19933;-73
2023/09/06 03:32:07;;;;;;;0.20;0.20;;;15.10;99.90;;;;;;4985599;28;20058;-72
2023/09/06 03:34:36;;;;;;;0.30;0.30;;;15.10;99.90;;;;;;4971838;28;20643;-72
2023/09/06 03:37:08;;;;;;;0.50;0.50;;;15.10;99.90;;;;;;4957010;28;20054;-73
2023/09/06 03:39:37;;;;;;;0.40;0.40;;;15.00;99.90;;;;;;4972058;28;20054;-72
2023/09/06 03:42:08;;;;;;;0.45;0.35;;;15.00;99.90;;;;;;4992048;28;20053;-73
2023/09/06 03:44:35;;;;;;;0.60;0.60;;;15.00;99.90;;;;;;4990248;28;20049;-73
2023/09/06 03:47:04;;;;;;;0.25;0.25;;;15.00;99.90;;;;;;4969169;28;20089;-72
2023/09/06 03:49:29;;;;;;;0.55;0.55;;;14.90;99.90;;;;;;4964830;28;20613;-73
2023/09/06 03:51:55;;;;;;;0.30;0.30;;;14.80;99.90;;;;;;4978995;28;20057;-73
2023/09/06 03:54:24;;;;;;;0.30;0.30;;;14.80;99.90;;;;;;4965374;28;20137;-73
2023/09/06 03:56:49;;;;;;;0.30;0.30;;;14.80;99.90;;;;;;4950142;28;20051;-72
2023/09/06 03:59:16;;;;;;;0.30;0.30;;;14.70;99.90;;;;;;4992604;28;20046;-73
2023/09/06 04:01:43;;;;;;;0.30;0.30;;;14.70;99.90;;;;;;4965978;28;20050;-72
2023/09/06 04:04:10;;;;;;;0.20;0.20;;;14.70;99.90;;;;;;4986730;28;20662;-73
2023/09/06 04:06:35;;;;;;;0.40;0.40;;;14.70;99.90;;;;;;4984803;28;20284;-73
2023/09/06 04:09:02;;;;;;;0.30;0.30;;;14.70;99.90;;;;;;4984268;28;20050;-73
2023/09/06 04:11:29;;;;;;;0.40;0.40;;;14.70;99.90;;;;;;4981018;28;20069;-72
2023/09/06 04:13:55;;;;;;;0.30;0.30;;;14.70;99.90;;;;;;4985242;28;20065;-72
2023/09/06 04:16:22;;;;;;;0.50;0.50;;;14.70;99.90;;;;;;4994957;28;20061;-73
2023/09/06 04:18:48;;;;;;;0.20;0.20;;;14.70;99.90;;;;;;5000178;28;20104;-72
2023/09/06 04:21:14;;;;;;;0.30;0.30;;;14.60;99.90;;;;;;4984646;28;20072;-72
2023/09/06 04:23:40;;;;;;;0.32;0.32;;;14.60;99.90;;;;;;4992836;28;20128;-72
2023/09/06 04:26:06;;;;;;;0.22;0.22;;;14.60;99.90;;;;;;5005457;28;20042;-72
2023/09/06 04:28:31;;;;;;;0.40;0.40;;;14.60;99.90;;;;;;4989413;28;20104;-72
2023/09/06 04:31:03;;;;;;;0.30;0.30;;;14.60;99.90;;;;;;4989455;28;20070;-73
2023/09/06 04:33:29;;;;;;;0.30;0.30;;;14.60;99.90;;;;;;5002977;28;20538;-73
2023/09/06 04:35:55;;;;;;;0.20;0.20;;;14.50;99.90;;;;;;4971812;28;20265;-73
2023/09/06 04:38:24;;;;;;;0.20;0.20;;;14.50;99.90;;;;;;4960082;28;20042;-73
2023/09/06 04:40:51;;;;;;;0.30;0.30;;;14.40;99.90;;;;;;4977481;28;21465;-72
2023/09/06 04:43:18;;;;;;;0.30;0.30;;;14.40;99.90;;;;;;4981851;28;20142;-73
2023/09/06 04:45:44;;;;;;;0.30;0.30;;;14.30;99.90;;;;;;4964568;28;20077;-72
2023/09/06 04:48:16;;;;;;;0.30;0.30;;;14.20;99.90;;;;;;4969301;28;20050;-72
2023/09/06 04:50:44;;;;;;;0.40;0.40;;;14.20;99.90;;;;;;5000182;28;20108;-73
2023/09/06 04:53:12;;;;;;;0.40;0.40;;;14.10;99.90;;;;;;4987425;28;20050;-73
2023/09/06 04:55:39;;;;;;;0.40;0.40;;;14.10;99.90;;;;;;4982665;28;20522;-75
2023/09/06 04:58:07;;;;;;;0.40;0.40;;;14.00;99.90;;;;;;4982908;28;20843;-75
2023/09/06 05:00:38;;;;;;;0.23;0.23;;;14.10;99.90;;;;;;5004967;28;20510;-75
2023/09/06 05:03:11;;;;;;;0.40;0.40;;;14.10;99.90;;;;;;4966220;28;20345;-72
2023/09/06 05:05:38;;;;;;;0.30;0.30;;;14.10;99.90;;;;;;4982009;28;20057;-74
2023/09/06 05:08:04;;;;;;;0.40;0.40;;;14.10;99.90;;;;;;4984175;28;20058;-74
2023/09/06 05:10:31;;;;;;;0.20;0.20;;;14.10;99.90;;;;;;4987756;28;20161;-72
2023/09/06 05:12:57;;;;;;;0.30;0.30;;;14.10;99.90;;;;;;4983554;28;20129;-75
2023/09/06 05:15:22;;;;;;;0.30;0.30;;;14.10;99.90;;;;;;4985873;28;20068;-74
2023/09/06 05:17:48;;;;;;;0.30;0.30;;;14.20;99.90;;;;;;4986918;28;20057;-72
2023/09/06 05:20:35;;;;;;;0.30;0.30;;;14.20;99.90;;;;;;4999293;28;20042;-75
2023/09/06 05:23:03;;;;;;;0.30;0.30;;;14.30;99.90;;;;;;4993565;28;20792;-73
2023/09/06 05:25:29;;;;;;;0.40;0.40;;;14.30;99.90;;;;;;4984875;28;20439;-75
2023/09/06 05:28:00;;;;;;;0.30;0.30;;;14.40;99.90;;;;;;4981653;28;20075;-73
2023/09/06 05:30:26;;;;;;;0.30;0.30;;;14.40;99.90;;;;;;4984151;28;20137;-73
2023/09/06 05:32:56;;;;;;;0.30;0.30;;;14.50;99.90;;;;;;4989845;28;20050;-74
2023/09/06 05:35:23;;;;;;;0.30;0.30;;;14.50;99.90;;;;;;4970331;28;20193;-73
2023/09/06 05:37:49;;;;;;;0.47;0.40;;;14.60;99.90;;;;;;4983844;28;20046;-73
2023/09/06 05:40:14;;;;;;;0.20;0.20;;;14.70;99.90;;;;;;4987760;28;20148;-72
2023/09/06 05:42:40;;;;;;;0.30;0.30;;;14.70;99.90;;;;;;4969775;28;20474;-75
2023/09/06 05:45:10;;;;;;;0.40;0.40;;;14.80;99.90;;;;;;4969316;28;21728;-73
2023/09/06 05:47:36;;;;;;;0.40;0.40;;;14.80;99.90;;;;;;4987459;28;20079;-73
2023/09/06 05:50:02;;;;;;;0.30;0.30;;;14.90;99.90;;;;;;4983361;28;20166;-73
2023/09/06 05:52:28;;;;;;;0.25;0.25;;;15.00;99.90;;;;;;4983223;28;20054;-73
2023/09/06 05:54:54;;;;;;;0.28;0.28;;;15.20;99.90;;;;;;4969918;28;20058;-73
2023/09/06 05:57:20;;;;;;;0.40;0.40;;;15.30;99.90;;;;;;4981989;28;20550;-73
2023/09/06 05:59:46;;;;;;;0.38;0.38;;;15.40;99.90;;;;;;4985117;28;20054;-73
2023/09/06 06:02:12;;;;;;;0.30;0.30;;;15.40;99.90;;;;;;4996879;28;20050;-74
2023/09/06 06:04:37;;;;;;;0.40;0.40;;;15.50;99.90;;;;;;4990044;28;20128;-75
2023/09/06 06:07:03;;;;;;;0.60;0.60;;;15.60;99.90;;;;;;4988091;28;20058;-74
2023/09/06 06:09:29;;;;;;;0.40;0.40;;;15.70;99.90;;;;;;4992272;28;20046;-74
2023/09/06 06:11:54;;;;;;;0.22;0.22;;;15.70;99.90;;;;;;4987053;28;20049;-73
2023/09/06 06:14:22;;;;;;;0.30;0.30;;;15.80;99.90;;;;;;4998137;28;20050;-72
2023/09/06 06:16:48;;;;;;;0.60;0.60;;;15.90;99.90;;;;;;4993470;28;20145;-72
2023/09/06 06:19:14;;;;;;;0.30;0.30;;;15.90;99.90;;;;;;4979872;28;20050;-72
2023/09/06 06:21:40;;;;;;;0.20;0.20;;;16.10;99.90;;;;;;4992329;28;20600;-73
2023/09/06 06:24:09;;;;;;;0.30;0.30;;;16.10;99.90;;;;;;4979444;28;20047;-72
2023/09/06 06:26:35;;;;;;;0.40;0.40;;;16.20;99.90;;;;;;4994653;28;20845;-72
2023/09/06 06:29:01;;;;;;;0.30;0.30;;;16.20;99.90;;;;;;4989409;28;20116;-72
2023/09/06 06:31:28;;;;;;;0.50;0.50;;;16.30;99.90;;;;;;4990143;28;20054;-72
2023/09/06 06:33:53;;;;;;;0.30;0.30;;;16.40;99.90;;;;;;4991702;28;20144;-73
2023/09/06 06:36:19;;;;;;;0.40;0.40;;;16.50;99.90;;;;;;4985995;28;20054;-73
2023/09/06 06:38:48;;;;;;;0.30;0.30;;;16.60;99.90;;;;;;4970661;28;20052;-72
2023/09/06 06:41:20;;;;;;;0.47;0.47;;;16.70;99.90;;;;;;4983025;28;20188;-73
2023/09/06 06:43:49;;;;;;;0.28;0.28;;;16.70;99.90;;;;;;4969918;28;20132;-73
2023/09/06 06:46:29;;;;;;;0.40;0.40;;;16.80;99.90;;;;;;4987485;28;20981;-73
2023/09/06 06:48:56;;;;;;;1.00;0.88;;;16.90;99.90;;;;;;4983637;28;20141;-73
2023/09/06 06:51:24;;;;;;;0.43;0.43;;;17.10;99.90;;;;;;4967176;28;20148;-73
2023/09/06 06:53:50;;;;;;;0.60;0.60;;;17.20;99.90;;;;;;4971444;28;20129;-73
2023/09/06 06:56:21;;;;;;;0.40;0.40;;;17.40;99.90;;;;;;4976996;28;22092;-73
2023/09/06 06:58:50;;;;;;;1.08;0.98;;;17.50;99.90;;;;;;4970827;28;20061;-73
2023/09/06 07:01:17;;;;;;;0.40;0.40;;;17.70;99.90;;;;;;4978109;28;20471;-73
2023/09/06 07:03:43;;;;;;;0.40;0.40;;;18.00;99.90;;;;;;4986463;28;20115;-73
2023/09/06 07:06:08;;;;;;;0.40;0.40;;;18.30;99.90;;;;;;4981332;28;20042;-73
2023/09/06 07:08:38;;;;;;;0.40;0.40;;;18.60;99.90;;;;;;4999010;28;20046;-73
2023/09/06 07:11:04;;;;;;;0.22;0.22;;;18.90;99.90;;;;;;4995664;28;20136;-73
2023/09/06 07:13:31;;;;;;;0.60;0.38;;;19.30;99.90;;;;;;4990220;28;20046;-73
2023/09/06 07:15:57;;;;;;;0.30;0.30;;;19.60;99.90;;;;;;4997083;28;20108;-74
2023/09/06 07:18:22;;;;;;;0.30;0.30;;;19.90;99.90;;;;;;5007447;28;20054;-73
2023/09/06 07:20:48;;;;;;;0.30;0.30;;;20.20;99.90;;;;;;4985216;28;20085;-74
2023/09/06 07:23:14;;;;;;;0.30;0.30;;;20.50;99.90;;;;;;4979252;28;20073;-73
2023/09/06 07:25:44;;;;;;;0.30;0.30;;;20.80;99.90;;;;;;5006430;28;20053;-74
2023/09/06 07:28:10;;;;;;;0.40;0.40;;;21.10;99.90;;;;;;4988954;28;20128;-74
2023/09/06 07:30:35;;;;;;;1.38;0.68;;;21.40;99.90;;;;;;5008315;28;20053;-74
2023/09/06 07:33:01;;;;;;;0.28;0.28;;;21.70;99.90;;;;;;4999996;28;20049;-73
2023/09/06 07:35:27;;;;;;;0.20;0.20;;;22.00;99.90;;;;;;4990841;28;20046;-74
2023/09/06 07:37:53;;;;;;;0.60;0.60;;;22.30;99.90;;;;;;4990428;28;20065;-74
2023/09/06 07:40:20;;;;;;;0.30;0.30;;;22.50;99.90;;;;;;5000920;28;20065;-74
2023/09/06 07:42:45;;;;;;;0.32;0.32;;;22.80;99.90;;;;;;4987267;28;20314;-73
2023/09/06 07:45:12;;;;;;;0.50;0.50;;;23.00;99.90;;;;;;4978602;28;20037;-74
2023/09/06 07:47:37;;;;;;;0.28;0.28;;;23.20;99.90;;;;;;4996533;28;20050;-74
2023/09/06 07:50:06;;;;;;;0.30;0.30;;;23.40;99.90;;;;;;4986992;28;20050;-74
2023/09/06 07:52:33;;;;;;;0.30;0.30;;;23.70;99.90;;;;;;5004597;28;20073;-74
2023/09/06 07:54:58;;;;;;;0.20;0.20;;;23.90;99.90;;;;;;4983608;28;20042;-73
2023/09/06 07:57:25;;;;;;;0.30;0.30;;;24.20;99.90;;;;;;4989390;28;20045;-74
2023/09/06 07:59:50;;;;;;;0.30;0.30;;;24.40;99.90;;;;;;4988282;28;20868;-73
2023/09/06 08:02:16;;;;;;;0.68;0.68;;;24.70;99.90;;;;;;4984228;28;20049;-74
2023/09/06 08:04:41;;;;;;;0.40;0.40;;;24.80;99.90;;;;;;5006059;28;20041;-74
2023/09/06 08:07:08;;;;;;;0.30;0.30;;;25.00;99.90;;;;;;4985949;28;20046;-74
2023/09/06 08:09:34;;;;;;;0.30;0.30;;;25.20;99.90;;;;;;4984989;28;20056;-73
2023/09/06 08:12:00;;;;;;;0.40;0.40;;;25.40;99.90;;;;;;4982198;28;20050;-74
2023/09/06 08:14:26;;;;;;;0.20;0.20;;;25.60;99.90;;;;;;4990291;28;20049;-74
2023/09/06 08:16:51;;;;;;;0.30;0.30;;;25.80;99.90;;;;;;4990645;28;20076;-74
2023/09/06 08:19:17;;;;;;;0.40;0.40;;;26.00;99.90;;;;;;4986984;28;20116;-74
2023/09/06 08:21:43;;;;;;;0.45;0.45;;;26.20;99.90;;;;;;5001583;28;20512;-74
2023/09/06 08:24:08;;;;;;;0.68;0.68;;;26.40;99.90;;;;;;5002382;28;20534;-74
2023/09/06 08:26:36;;;;;;;0.30;0.30;;;26.50;99.90;;;;;;4989862;28;20506;-74
2023/09/06 08:29:01;;;;;;;0.73;0.73;;;26.70;99.90;;;;;;4989897;28;20049;-74
2023/09/06 08:31:27;;;;;;;0.30;0.30;;;26.90;99.90;;;;;;5000823;28;20046;-74
2023/09/06 08:33:53;;;;;;;0.30;0.30;;;27.00;99.90;;;;;;4995556;28;20054;-74
2023/09/06 08:36:19;;;;;;;0.30;0.30;;;27.10;99.90;;;;;;4988418;28;20050;-74
2023/09/06 08:38:44;;;;;;;0.50;0.50;;;27.30;99.90;;;;;;5002848;28;20042;-74
2023/09/06 08:41:10;;;;;;;0.60;0.60;;;27.50;99.90;;;;;;4985745;28;20038;-74
2023/09/06 08:43:43;;;;;;;0.40;0.40;;;27.60;99.90;;;;;;4992448;28;20033;-74
2023/09/06 08:46:27;;;;;;;0.20;0.20;;;27.70;99.90;;;;;;4966684;28;20051;-74
2023/09/06 08:48:55;;;;;;;0.50;0.45;;;27.90;99.90;;;;;;4993901;28;20136;-74
2023/09/06 08:51:22;;;;;;;0.40;0.40;;;28.00;99.90;;;;;;4981166;28;20041;-74
2023/09/06 08:53:48;;;;;;;0.60;0.60;;;28.20;99.90;;;;;;4983793;28;20081;-74
2023/09/06 08:56:17;;;;;;;0.50;0.50;;;28.40;99.90;;;;;;4986313;28;20196;-74
2023/09/06 08:58:44;;;;;;;0.32;0.32;;;28.60;99.90;;;;;;4987277;28;20053;-74
2023/09/06 09:01:09;;;;;;;0.30;0.30;;;28.80;99.90;;;;;;4988375;28;20046;-74
2023/09/06 09:03:35;;;;;;;0.20;0.20;;;28.90;99.90;;;;;;4984240;28;20407;-74
2023/09/06 09:06:06;;;;;;;0.30;0.30;;;29.20;99.90;;;;;;4979850;28;20492;-74
2023/09/06 09:08:33;;;;;;;0.20;0.20;;;29.40;99.90;;;;;;4984173;28;20123;-74
2023/09/06 09:11:28;;;;;;;0.30;0.30;;;29.60;99.90;;;;;;4992877;28;20055;-74
2023/09/06 09:13:54;;;;;;;0.30;0.30;;;29.90;99.90;;;;;;4975015;28;20062;-74
2023/09/06 09:16:22;;;;;;;0.35;0.35;;;30.10;99.90;;;;;;4986229;28;20057;-74
2023/09/06 09:18:47;;;;;;;0.50;0.50;;;30.30;99.90;;;;;;4987945;28;20081;-74
2023/09/06 09:21:14;;;;;;;0.38;0.38;;;30.40;99.90;;;;;;4989095;28;20041;-74
2023/09/06 09:23:47;;;;;;;0.70;0.70;;;30.50;99.90;;;;;;4986136;28;20038;-74
2023/09/06 09:26:13;;;;;;;0.40;0.40;;;30.50;99.90;;;;;;4986813;28;20058;-74
2023/09/06 09:28:42;;;;;;;0.40;0.40;;;30.50;99.90;;;;;;4991044;28;20474;-74
2023/09/06 09:31:15;;;;;;;0.40;0.40;;;30.70;99.90;;;;;;5000675;28;20046;-74
2023/09/06 09:33:50;;;;;;;0.68;0.68;;;30.90;99.90;;;;;;4986629;28;20107;-74
2023/09/06 09:36:17;;;;;;;0.57;0.57;;;31.00;99.90;;;;;;4998378;28;20162;-74
2023/09/06 09:38:52;;;;;;;0.30;0.30;;;31.10;99.90;;;;;;4985853;28;20042;-73
2023/09/06 09:41:19;;;;;;;0.40;0.40;;;31.20;99.90;;;;;;4980278;28;20058;-74
2023/09/06 09:43:45;;;;;;;0.95;0.63;;;31.30;99.10;;;;;;4981627;28;20058;-73
2023/09/06 09:46:10;;;;;;;0.52;0.52;;;31.30;98.60;;;;;;4989393;28;20045;-73
2023/09/06 09:48:37;;;;;;;0.82;0.82;;;31.20;98.60;;;;;;4987558;28;20038;-73
2023/09/06 09:51:07;;;;;;;0.43;0.43;;;31.30;98.80;;;;;;5002314;28;20554;-73
2023/09/06 09:53:35;;;;;;;0.50;0.50;;;31.50;99.80;;;;;;4992631;28;20058;-73
2023/09/06 09:56:06;;;;;;;0.43;0.43;;;31.60;99.30;;;;;;5002234;28;20388;-73
2023/09/06 09:58:34;;;;;;;0.52;0.52;;;31.70;99.50;;;;;;4991055;28;20077;-74
2023/09/06 10:01:00;;;;;;;0.80;0.70;;;31.90;98.00;;;;;;4995737;28;20057;-73
2023/09/06 10:03:27;;;;;;;0.40;0.40;;;32.00;98.60;;;;;;4989131;28;20614;-73
2023/09/06 10:05:53;;;;;;;0.30;0.30;;;32.10;96.30;;;;;;4991281;28;20061;-73
2023/09/06 10:08:21;;;;;;;0.40;0.40;;;32.10;97.00;;;;;;4976318;28;20345;-73
2023/09/06 10:10:47;;;;;;;0.60;0.60;;;32.20;97.20;;;;;;5007768;28;20124;-73
2023/09/06 10:13:16;;;;;;;0.93;0.93;;;32.30;95.10;;;;;;4991616;28;20136;-73
2023/09/06 10:15:43;;;;;;;0.40;0.40;;;32.20;94.30;;;;;;5010826;28;20513;-74
2023/09/06 10:18:09;;;;;;;0.88;0.88;;;32.30;95.30;;;;;;4987231;28;20068;-73
2023/09/06 10:20:37;;;;;;;0.40;0.40;;;32.30;94.60;;;;;;4990804;28;20050;-74
2023/09/06 10:23:05;;;;;;;0.50;0.50;;;32.40;95.40;;;;;;4982858;28;20100;-74
2023/09/06 10:25:31;;;;;;;0.55;0.55;;;32.40;93.60;;;;;;4988238;28;20090;-74
2023/09/06 10:28:01;;;;;;;0.60;0.60;;;32.40;93.60;;;;;;4997765;28;20045;-73
2023/09/06 10:30:43;;;;;;;0.50;0.50;;;32.40;93.80;;;;;;4991919;28;20045;-73
2023/09/06 10:33:28;;;;;;;0.40;0.40;;;32.40;92.00;;;;;;4981932;28;20133;-74
2023/09/06 10:36:03;;;;;;;0.60;0.60;;;32.50;93.00;;;;;;4989185;28;20052;-74
2023/09/06 10:38:30;;;;;;;0.60;0.60;;;32.40;92.90;;;;;;4978295;28;20435;-74
2023/09/06 10:40:55;;;;;;;;;;;32.40;92.00;;;;;;4991471;28;20064;-74
2023/09/06 10:43:23;;;;;;;0.53;0.53;;;32.40;92.30;;;;;;4992031;28;20310;-73
2023/09/06 10:46:07;;;;;;;0.40;0.40;;;32.40;92.80;;;;;;4990131;28;20061;-73
2023/09/06 10:48:33;;;;;;;0.50;0.50;;;32.40;91.00;;;;;;4998006;28;20053;-73
2023/09/06 10:51:09;;;;;;;0.80;0.80;;;32.40;91.40;;;;;;4969494;28;20035;-74
2023/09/06 10:53:36;;;;;;;0.80;0.80;;;32.60;92.00;;;;;;4990182;28;20057;-73
2023/09/06 10:56:03;;;;;;;0.73;0.70;;;32.60;91.80;;;;;;4990885;28;20050;-73
2023/09/06 10:58:32;;;;;;;0.68;0.68;;;32.70;91.00;;;;;;4990780;28;20079;-73
2023/09/06 11:01:18;;;;;;;0.45;0.45;;;32.70;90.40;;;;;;4987928;28;20124;-74
2023/09/06 11:03:50;;;;;;;0.50;0.50;;;32.80;92.20;;;;;;4994667;28;20112;-73
2023/09/06 11:06:16;;;;;;;0.52;0.52;;;32.70;90.40;;;;;;4990041;28;20045;-74
2023/09/06 11:08:42;;;;;;;0.50;0.50;;;32.80;91.10;;;;;;4985178;28;20056;-74
2023/09/06 11:11:10;;;;;;;0.40;0.40;;;32.80;90.80;;;;;;5003262;28;20042;-73
2023/09/06 11:13:41;;;;;;;0.40;0.40;;;32.80;91.00;;;;;;4991828;28;20407;-73
2023/09/06 11:16:13;;;;;;;0.43;0.43;;;32.80;89.80;;;;;;4985134;28;20070;-73
2023/09/06 11:18:57;;;;;;;0.88;0.88;;;32.90;89.70;;;;;;4992528;28;20058;-73
2023/09/06 11:21:25;;;;;;;0.40;0.40;;;32.90;89.30;;;;;;5002472;28;20052;-73
2023/09/06 11:23:53;;;;;;;0.40;0.40;;;33.00;89.40;;;;;;4988090;28;20881;-74
2023/09/06 11:26:19;;;;;;;0.80;0.80;;;32.90;90.40;;;;;;4983791;28;20482;-73
2023/09/06 11:28:48;;;;;;;0.57;0.57;;;32.90;88.20;;;;;;4985463;28;20093;-73
2023/09/06 11:31:22;;;;;;;0.55;0.55;;;32.90;89.50;;;;;;4984343;28;20038;-73
2023/09/06 11:33:55;;;;;;;1.35;0.98;;;33.00;87.50;;;;;;4983156;28;20113;-73
2023/09/06 11:36:22;;;;;;;0.38;0.38;;;33.10;88.70;;;;;;4995817;28;20129;-73
2023/09/06 11:38:49;;;;;;;0.40;0.40;;;33.10;87.20;;;;;;4986633;28;20522;-73
2023/09/06 11:41:16;;;;;;;0.40;0.40;;;33.20;88.30;;;;;;4981230;28;20051;-74
2023/09/06 11:43:46;;;;;;;0.82;0.82;;;33.20;89.40;;;;;;4985489;28;20615;-74
2023/09/06 11:46:14;;;;;;;0.50;0.50;;;33.20;88.00;;;;;;4985135;28;20060;-73
2023/09/06 11:48:40;;;;;;;0.50;0.50;;;33.30;87.60;;;;;;5004921;28;20116;-73
2023/09/06 11:51:11;;;;;;;0.50;0.50;;;33.40;88.00;;;;;;4986433;28;20050;-73
2023/09/06 11:53:43;;;;;;;0.40;0.40;;;33.30;85.00;;;;;;4985182;28;20049;-73
2023/09/06 11:56:11;;;;;;;0.40;0.40;;;33.30;87.00;;;;;;5001891;28;20045;-73
2023/09/06 11:58:49;;;;;;;0.30;0.30;;;33.30;85.40;;;;;;4982382;28;20136;-73
2023/09/06 12:01:22;;;;;;;0.60;0.60;;;33.30;84.80;;;;;;4979758;28;20075;-73
2023/09/06 12:03:48;;;;;;;0.80;0.80;;;33.40;84.80;;;;;;4970317;28;20249;-73
2023/09/06 12:06:14;;;;;;;0.57;0.57;;;33.40;83.50;;;;;;4990826;28;20054;-73
2023/09/06 12:08:41;;;;;;;0.57;0.57;;;33.50;84.20;;;;;;5000053;28;20046;-73
2023/09/06 12:11:10;;;;;;;0.73;0.73;;;33.50;84.40;;;;;;4987688;28;20057;-73
2023/09/06 12:13:38;;;;;;;0.60;0.60;;;33.60;84.80;;;;;;4988336;28;20045;-73
2023/09/06 12:16:05;;;;;;;0.70;0.70;;;33.60;85.90;;;;;;5003022;28;20046;-73
2023/09/06 12:18:33;;;;;;;1.13;1.10;;;33.60;85.70;;;;;;4966290;28;20051;-74
2023/09/06 12:20:59;;;;;;;0.75;0.75;;;33.60;86.00;;;;;;4985988;28;20051;-73
2023/09/06 12:23:28;;;;;;;0.50;0.50;;;33.50;82.20;;;;;;4981079;28;20047;-73
2023/09/06 12:25:54;;;;;;;0.75;0.75;;;33.50;84.00;;;;;;4987417;28;20046;-73
2023/09/06 12:28:20;;;;;;;0.50;0.50;;;33.50;82.40;;;;;;4966292;28;20444;-74
2023/09/06 12:30:46;;;;;;;0.75;0.75;;;33.50;82.40;;;;;;4983603;28;20046;-74
2023/09/06 12:33:14;;;;;;;0.60;0.60;;;33.50;81.70;;;;;;4962948;28;20054;-73
2023/09/06 12:35:40;;;;;;;0.60;0.60;;;33.50;83.40;;;;;;4969304;28;20038;-73
2023/09/06 12:38:06;;;;;;;0.47;0.47;;;33.70;84.10;;;;;;4986218;28;20050;-73
2023/09/06 12:40:35;;;;;;;0.40;0.40;;;33.70;83.00;;;;;;4986218;28;20514;-73
2023/09/06 12:43:01;;;;;;;0.70;0.70;;;33.70;83.90;;;;;;4985823;28;20038;-73
2023/09/06 12:45:29;;;;;;;0.57;0.57;;;33.70;83.30;;;;;;4988274;28;20035;-73
2023/09/06 12:47:56;;;;;;;0.40;0.40;;;33.70;82.90;;;;;;4985799;28;20126;-73
2023/09/06 12:50:24;;;;;;;0.60;0.60;;;33.80;81.40;;;;;;4967603;28;20042;-72
2023/09/06 12:52:50;;;;;;;0.70;0.70;;;33.80;81.60;;;;;;4968283;28;20061;-73
2023/09/06 12:55:16;;;;;;;0.85;0.85;;;33.70;78.40;;;;;;4970405;28;20050;-73
2023/09/06 12:57:42;;;;;;;0.60;0.60;;;33.70;81.80;;;;;;4967746;28;20038;-73
2023/09/06 13:00:12;;;;;;;0.50;0.50;;;33.70;81.10;;;;;;4970418;28;20038;-73
2023/09/06 13:02:38;;;;;;;0.50;0.50;;;33.70;81.60;;;;;;4962033;28;20143;-73
2023/09/06 13:05:04;;;;;;;0.50;0.50;;;33.70;81.30;;;;;;4986719;28;20065;-73
2023/09/06 13:07:30;;;;;;;0.52;0.52;;;33.70;81.50;;;;;;4972562;28;20448;-72
2023/09/06 13:09:57;;;;;;;0.50;0.50;;;33.70;80.30;;;;;;4985704;28;20058;-73